Terminal Aerodrome Forecast
Issued by NWS Raleigh/Durham, NC

Home | Current Version | Previous Version | Text Only | Print | Product List | Glossary On
Versions: 1 2 3 4 5 6 7 8 9 10 11 12 13 14 15 16 17 18 19 20 21 22 23 24 25 26 27 28 29 30 31 32 33 34 35 36 37 38 39 40 41 42 43 44 45 46 47 48 49 50
386
FTUS42 KRAH 250256 AAA
TAFGSO
TAF AMD
KGSO 250256Z 2503/2524 19004KT P6SM FEW100 SCT250
      TEMPO 2510/2512 4SM BR FEW008 SCT060
     FM251400 22011KT P6SM BKN050
     FM251600 23013G21KT 3SM -SHRA BR FEW030 BKN040
     FM251800 26014G22KT P6SM SCT080 BKN120
     FM252000 27015G26KT P6SM SCT090=

USA.gov is the U.S. government's official web portal to all federal, state and local government web resources and services.